Aérodrome :
LOGIN :

S'inscrire | Disclaimer

   EN    FR    IT 

 










Légende :    VFR   VFR Marginal   IFR   IFR Intensif   IFR Très Intensif
Visi : 
Plafond : 
>= 8 km
>= 3000ft
5 à 8 km
1000 à 3000 ft
1500m à 5 km
500 à 1000 ft
800 à 1500m
200 à 500 ft
< 800m
< 200 ft
Symboles :   Orages  Brouillard  Fortes neiges  Fortes précipitations  Vent > 20 kt
SIGMETs :   Divers  Orages  Givrage  Turbulence  Onde Orograph.  Cendres Volcan.







- Altitude de l'aérodrome : 17 ft
- Code IATA : GRQ


EHGG - Groningen Eelde

DERNIER METAR :
  • 240955Z AUTO 25010KT 220V290 9999 FEW007 SCT018 BKN022 17/16 Q1011 REDZ TEMPO 4000 -DZRA

METARs EXPIRÉS :
  • 240925Z AUTO 25013KT 220V280 9999 FEW010 SCT012 OVC025 17/16 Q1011 TEMPO 4000 -RADZ BKN008
  • 240855Z AUTO 24012KT 9999 FEW010 BKN012 OVC015 17/16 Q1011 TEMPO 4000 -RADZ BKN008
  • 240825Z AUTO 24012KT 220V290 9999 FEW009 BKN011 BKN013 18/17 Q1011 TEMPO 4000 -RADZ BKN008
  • 240755Z AUTO 24010KT 210V280 9999 FEW007 BKN011 BKN014 17/16 Q1011 TEMPO 4000 -RADZ BKN008
  • 240725Z AUTO 24010KT 9999 FEW007 SCT008 BKN009 17/16 Q1011 TEMPO 6000 -RADZ BKN012

TAF TAF EHGG
Valide du 24 à 06h jusqu'au 25 à 12h UTC


240450Z 2406/2512 24010KT 9999 BKN020
TEMPO 2406/2412 4000 -DZRA BKN005
BECMG 2410/2413 24015G25KT
TEMPO 2410/2503 6000 -SHRA -RADZ FEW015TCU BKN018
BECMG 2418/2421 24008KT
PROB40
TEMPO 2420/2503 3000 -RADZ -SHRA BKN006 FEW015TCU
BECMG 2506/2509 27015G25KT
Pas de NOTAMs connus pour ce terrain.



MET'MAP, la Météo Aéronautique d'un coup d'oeil ! - Copyright ORBIFLY Décembre 2007 - Disclaimer

ORBIFLY MET'MAP TEAM :

Programmation & Développement : Alexandra Zaïnal
Conception & Développement : Baudouin d'Aumeries
Co-Programmation & Développement : Marc-Olivier Méhu
Soutien technique & logistique : Manuel Goepfert

Contact : metmap@orbifly.com




SOURCES & CREDITS :

   NOAA